sensor_id;sensor_type;location;lat;lon;timestamp;P1;durP1;ratioP1;P2;durP2;ratioP2
9306;SDS011;4691;47.612;7.610;2023-08-06T00:00:35;7.63;;;2.70;;
9306;SDS011;4691;47.612;7.610;2023-08-06T00:03:00;8.00;;;2.75;;
9306;SDS011;4691;47.612;7.610;2023-08-06T00:05:25;7.90;;;3.00;;
9306;SDS011;4691;47.612;7.610;2023-08-06T00:07:51;5.38;;;2.70;;
9306;SDS011;4691;47.612;7.610;2023-08-06T00:10:16;4.43;;;2.45;;
9306;SDS011;4691;47.612;7.610;2023-08-06T00:12:42;7.78;;;2.65;;
9306;SDS011;4691;47.612;7.610;2023-08-06T00:15:08;5.32;;;2.55;;
9306;SDS011;4691;47.612;7.610;2023-08-06T00:17:37;5.38;;;2.63;;
9306;SDS011;4691;47.612;7.610;2023-08-06T00:20:03;6.90;;;2.33;;
9306;SDS011;4691;47.612;7.610;2023-08-06T00:22:34;7.72;;;2.60;;
9306;SDS011;4691;47.612;7.610;2023-08-06T00:25:01;8.13;;;2.70;;
9306;SDS011;4691;47.612;7.610;2023-08-06T00:27:26;9.48;;;2.10;;
9306;SDS011;4691;47.612;7.610;2023-08-06T00:29:52;6.57;;;2.40;;
9306;SDS011;4691;47.612;7.610;2023-08-06T00:32:17;8.15;;;2.40;;
9306;SDS011;4691;47.612;7.610;2023-08-06T00:34:43;5.93;;;2.20;;
9306;SDS011;4691;47.612;7.610;2023-08-06T00:37:08;4.10;;;2.20;;
9306;SDS011;4691;47.612;7.610;2023-08-06T00:39:33;3.88;;;2.30;;
9306;SDS011;4691;47.612;7.610;2023-08-06T00:41:59;4.57;;;2.28;;
9306;SDS011;4691;47.612;7.610;2023-08-06T00:44:24;4.30;;;2.20;;
9306;SDS011;4691;47.612;7.610;2023-08-06T00:46:49;5.85;;;2.30;;
9306;SDS011;4691;47.612;7.610;2023-08-06T00:49:15;7.82;;;2.40;;
9306;SDS011;4691;47.612;7.610;2023-08-06T00:51:40;3.25;;;1.90;;
9306;SDS011;4691;47.612;7.610;2023-08-06T00:54:07;4.55;;;2.33;;
9306;SDS011;4691;47.612;7.610;2023-08-06T00:56:34;4.88;;;2.20;;
9306;SDS011;4691;47.612;7.610;2023-08-06T00:59:05;6.72;;;2.40;;
9306;SDS011;4691;47.612;7.610;2023-08-06T01:01:31;4.47;;;2.20;;
9306;SDS011;4691;47.612;7.610;2023-08-06T01:03:57;4.18;;;2.00;;
9306;SDS011;4691;47.612;7.610;2023-08-06T01:06:26;5.07;;;1.98;;
9306;SDS011;4691;47.612;7.610;2023-08-06T01:09:07;4.43;;;2.20;;
9306;SDS011;4691;47.612;7.610;2023-08-06T01:14:30;5.70;;;2.28;;
9306;SDS011;4691;47.612;7.610;2023-08-06T01:17:02;4.70;;;1.98;;
9306;SDS011;4691;47.612;7.610;2023-08-06T01:19:29;3.88;;;1.90;;
9306;SDS011;4691;47.612;7.610;2023-08-06T01:21:55;4.97;;;2.10;;
9306;SDS011;4691;47.612;7.610;2023-08-06T01:24:20;3.35;;;1.73;;
9306;SDS011;4691;47.612;7.610;2023-08-06T01:26:48;7.38;;;2.30;;
9306;SDS011;4691;47.612;7.610;2023-08-06T01:32:12;6.65;;;1.98;;
9306;SDS011;4691;47.612;7.610;2023-08-06T01:34:40;5.18;;;2.10;;
9306;SDS011;4691;47.612;7.610;2023-08-06T01:37:09;4.25;;;1.98;;
9306;SDS011;4691;47.612;7.610;2023-08-06T01:39:35;5.07;;;2.00;;
9306;SDS011;4691;47.612;7.610;2023-08-06T01:42:00;3.58;;;1.83;;
9306;SDS011;4691;47.612;7.610;2023-08-06T01:44:25;3.78;;;2.15;;
9306;SDS011;4691;47.612;7.610;2023-08-06T01:46:51;7.82;;;2.05;;
9306;SDS011;4691;47.612;7.610;2023-08-06T01:49:16;6.15;;;2.17;;
9306;SDS011;4691;47.612;7.610;2023-08-06T01:51:41;3.75;;;1.75;;
9306;SDS011;4691;47.612;7.610;2023-08-06T01:54:07;6.57;;;1.77;;
9306;SDS011;4691;47.612;7.610;2023-08-06T01:56:32;3.88;;;1.83;;
9306;SDS011;4691;47.612;7.610;2023-08-06T01:58:57;8.95;;;2.08;;
9306;SDS011;4691;47.612;7.610;2023-08-06T02:01:23;6.43;;;2.30;;
9306;SDS011;4691;47.612;7.610;2023-08-06T02:03:48;4.43;;;1.90;;
9306;SDS011;4691;47.612;7.610;2023-08-06T02:06:13;7.57;;;2.08;;
9306;SDS011;4691;47.612;7.610;2023-08-06T02:08:39;4.15;;;2.08;;
9306;SDS011;4691;47.612;7.610;2023-08-06T02:11:04;3.88;;;2.00;;
9306;SDS011;4691;47.612;7.610;2023-08-06T02:13:30;7.68;;;2.20;;
9306;SDS011;4691;47.612;7.610;2023-08-06T02:15:55;5.07;;;1.88;;
9306;SDS011;4691;47.612;7.610;2023-08-06T02:19:31;8.90;;;2.33;;
9306;SDS011;4691;47.612;7.610;2023-08-06T02:21:56;8.10;;;2.35;;
9306;SDS011;4691;47.612;7.610;2023-08-06T02:24:22;7.05;;;1.77;;
9306;SDS011;4691;47.612;7.610;2023-08-06T02:26:47;9.88;;;2.45;;
9306;SDS011;4691;47.612;7.610;2023-08-06T02:29:15;11.52;;;2.30;;
9306;SDS011;4691;47.612;7.610;2023-08-06T02:31:41;4.55;;;1.90;;
9306;SDS011;4691;47.612;7.610;2023-08-06T02:34:06;6.07;;;2.63;;
9306;SDS011;4691;47.612;7.610;2023-08-06T02:36:31;8.40;;;2.00;;
9306;SDS011;4691;47.612;7.610;2023-08-06T02:38:57;6.82;;;1.98;;
9306;SDS011;4691;47.612;7.610;2023-08-06T02:41:22;6.82;;;1.40;;
9306;SDS011;4691;47.612;7.610;2023-08-06T02:43:47;14.50;;;1.77;;
9306;SDS011;4691;47.612;7.610;2023-08-06T02:46:13;10.68;;;1.80;;
9306;SDS011;4691;47.612;7.610;2023-08-06T02:48:38;6.13;;;1.30;;
9306;SDS011;4691;47.612;7.610;2023-08-06T02:51:03;7.43;;;1.58;;
9306;SDS011;4691;47.612;7.610;2023-08-06T02:53:28;10.25;;;1.48;;
9306;SDS011;4691;47.612;7.610;2023-08-06T02:55:54;12.95;;;1.50;;
9306;SDS011;4691;47.612;7.610;2023-08-06T02:58:20;9.18;;;2.40;;
9306;SDS011;4691;47.612;7.610;2023-08-06T03:01:01;9.77;;;1.92;;
9306;SDS011;4691;47.612;7.610;2023-08-06T03:03:28;9.60;;;2.00;;
9306;SDS011;4691;47.612;7.610;2023-08-06T03:05:54;12.00;;;2.20;;
9306;SDS011;4691;47.612;7.610;2023-08-06T03:08:20;10.13;;;2.13;;
9306;SDS011;4691;47.612;7.610;2023-08-06T03:10:47;10.65;;;2.25;;
9306;SDS011;4691;47.612;7.610;2023-08-06T03:13:13;8.43;;;2.10;;
9306;SDS011;4691;47.612;7.610;2023-08-06T03:15:38;11.15;;;2.22;;
9306;SDS011;4691;47.612;7.610;2023-08-06T03:18:03;9.07;;;1.95;;
9306;SDS011;4691;47.612;7.610;2023-08-06T03:20:30;13.32;;;2.38;;
9306;SDS011;4691;47.612;7.610;2023-08-06T03:22:57;11.68;;;2.45;;
9306;SDS011;4691;47.612;7.610;2023-08-06T03:25:22;10.45;;;2.50;;
9306;SDS011;4691;47.612;7.610;2023-08-06T03:27:47;9.73;;;2.00;;
9306;SDS011;4691;47.612;7.610;2023-08-06T03:30:12;10.75;;;2.10;;
9306;SDS011;4691;47.612;7.610;2023-08-06T03:32:38;11.65;;;2.30;;
9306;SDS011;4691;47.612;7.610;2023-08-06T03:41:47;10.05;;;1.80;;
9306;SDS011;4691;47.612;7.610;2023-08-06T03:44:12;13.38;;;3.03;;
9306;SDS011;4691;47.612;7.610;2023-08-06T03:46:37;10.15;;;1.85;;
9306;SDS011;4691;47.612;7.610;2023-08-06T03:49:02;11.57;;;2.25;;
9306;SDS011;4691;47.612;7.610;2023-08-06T03:51:28;13.45;;;2.35;;
9306;SDS011;4691;47.612;7.610;2023-08-06T03:53:53;11.60;;;2.85;;
9306;SDS011;4691;47.612;7.610;2023-08-06T03:56:18;18.52;;;3.55;;
9306;SDS011;4691;47.612;7.610;2023-08-06T03:58:44;12.85;;;2.80;;
9306;SDS011;4691;47.612;7.610;2023-08-06T04:01:09;11.27;;;2.20;;
9306;SDS011;4691;47.612;7.610;2023-08-06T04:03:34;11.48;;;2.47;;
9306;SDS011;4691;47.612;7.610;2023-08-06T04:06:01;14.35;;;3.38;;
9306;SDS011;4691;47.612;7.610;2023-08-06T04:08:27;9.85;;;2.55;;
9306;SDS011;4691;47.612;7.610;2023-08-06T04:10:52;10.35;;;2.70;;
9306;SDS011;4691;47.612;7.610;2023-08-06T04:13:18;8.40;;;2.30;;
9306;SDS011;4691;47.612;7.610;2023-08-06T04:15:43;14.32;;;2.67;;
9306;SDS011;4691;47.612;7.610;2023-08-06T04:18:09;11.70;;;2.13;;
9306;SDS011;4691;47.612;7.610;2023-08-06T04:20:34;10.95;;;2.72;;
9306;SDS011;4691;47.612;7.610;2023-08-06T04:22:59;18.15;;;2.67;;
9306;SDS011;4691;47.612;7.610;2023-08-06T04:25:30;14.80;;;2.67;;
9306;SDS011;4691;47.612;7.610;2023-08-06T04:27:56;10.93;;;2.83;;
9306;SDS011;4691;47.612;7.610;2023-08-06T04:30:21;9.10;;;2.40;;
9306;SDS011;4691;47.612;7.610;2023-08-06T04:32:46;11.13;;;2.30;;
9306;SDS011;4691;47.612;7.610;2023-08-06T04:35:12;9.65;;;2.33;;
9306;SDS011;4691;47.612;7.610;2023-08-06T04:37:37;14.95;;;2.50;;
9306;SDS011;4691;47.612;7.610;2023-08-06T04:40:02;11.02;;;2.97;;
9306;SDS011;4691;47.612;7.610;2023-08-06T04:42:28;14.00;;;2.53;;
9306;SDS011;4691;47.612;7.610;2023-08-06T04:44:53;11.35;;;1.90;;
9306;SDS011;4691;47.612;7.610;2023-08-06T04:47:18;15.68;;;3.17;;
9306;SDS011;4691;47.612;7.610;2023-08-06T04:49:44;16.27;;;2.60;;
9306;SDS011;4691;47.612;7.610;2023-08-06T04:52:09;11.57;;;2.70;;
9306;SDS011;4691;47.612;7.610;2023-08-06T04:54:34;14.95;;;2.60;;
9306;SDS011;4691;47.612;7.610;2023-08-06T04:57:00;12.30;;;2.10;;
9306;SDS011;4691;47.612;7.610;2023-08-06T04:59:25;22.08;;;3.25;;
9306;SDS011;4691;47.612;7.610;2023-08-06T05:01:50;12.18;;;2.33;;
9306;SDS011;4691;47.612;7.610;2023-08-06T05:04:15;8.20;;;2.20;;
9306;SDS011;4691;47.612;7.610;2023-08-06T05:06:41;19.45;;;2.85;;
9306;SDS011;4691;47.612;7.610;2023-08-06T05:09:06;11.20;;;2.45;;
9306;SDS011;4691;47.612;7.610;2023-08-06T05:11:31;13.20;;;2.80;;
9306;SDS011;4691;47.612;7.610;2023-08-06T05:13:57;18.30;;;2.70;;
9306;SDS011;4691;47.612;7.610;2023-08-06T05:16:22;10.82;;;2.50;;
9306;SDS011;4691;47.612;7.610;2023-08-06T05:18:48;10.90;;;2.38;;
9306;SDS011;4691;47.612;7.610;2023-08-06T05:21:14;10.68;;;2.50;;
9306;SDS011;4691;47.612;7.610;2023-08-06T05:23:41;12.35;;;2.47;;
9306;SDS011;4691;47.612;7.610;2023-08-06T05:26:06;12.25;;;2.58;;
9306;SDS011;4691;47.612;7.610;2023-08-06T05:28:31;7.80;;;2.20;;
9306;SDS011;4691;47.612;7.610;2023-08-06T05:30:57;9.07;;;2.33;;
9306;SDS011;4691;47.612;7.610;2023-08-06T05:33:22;5.60;;;2.10;;
9306;SDS011;4691;47.612;7.610;2023-08-06T05:35:48;5.93;;;1.90;;
9306;SDS011;4691;47.612;7.610;2023-08-06T05:38:14;14.82;;;2.22;;
9306;SDS011;4691;47.612;7.610;2023-08-06T05:40:39;13.20;;;2.10;;
9306;SDS011;4691;47.612;7.610;2023-08-06T05:43:05;8.45;;;2.08;;
9306;SDS011;4691;47.612;7.610;2023-08-06T05:45:30;7.03;;;2.22;;
9306;SDS011;4691;47.612;7.610;2023-08-06T05:47:55;9.93;;;2.55;;
9306;SDS011;4691;47.612;7.610;2023-08-06T05:50:23;6.80;;;1.80;;
9306;SDS011;4691;47.612;7.610;2023-08-06T05:52:48;11.05;;;2.25;;
9306;SDS011;4691;47.612;7.610;2023-08-06T05:55:13;9.50;;;1.90;;
9306;SDS011;4691;47.612;7.610;2023-08-06T05:57:39;9.88;;;1.92;;
9306;SDS011;4691;47.612;7.610;2023-08-06T06:00:04;6.80;;;1.77;;
9306;SDS011;4691;47.612;7.610;2023-08-06T06:02:31;6.10;;;1.63;;
9306;SDS011;4691;47.612;7.610;2023-08-06T06:04:56;7.63;;;1.50;;
9306;SDS011;4691;47.612;7.610;2023-08-06T06:07:21;10.95;;;1.83;;
9306;SDS011;4691;47.612;7.610;2023-08-06T06:09:47;10.43;;;1.60;;
9306;SDS011;4691;47.612;7.610;2023-08-06T06:12:12;5.28;;;1.48;;
9306;SDS011;4691;47.612;7.610;2023-08-06T06:14:37;5.32;;;1.50;;
9306;SDS011;4691;47.612;7.610;2023-08-06T06:17:02;4.47;;;1.40;;
9306;SDS011;4691;47.612;7.610;2023-08-06T06:19:28;6.40;;;1.50;;
9306;SDS011;4691;47.612;7.610;2023-08-06T06:21:53;5.05;;;1.23;;
9306;SDS011;4691;47.612;7.610;2023-08-06T06:24:19;5.50;;;1.33;;
9306;SDS011;4691;47.612;7.610;2023-08-06T06:26:44;7.43;;;1.30;;
9306;SDS011;4691;47.612;7.610;2023-08-06T06:29:09;6.55;;;1.25;;
9306;SDS011;4691;47.612;7.610;2023-08-06T06:31:34;3.05;;;1.02;;
9306;SDS011;4691;47.612;7.610;2023-08-06T06:34:00;3.50;;;1.15;;
9306;SDS011;4691;47.612;7.610;2023-08-06T06:36:25;4.13;;;1.20;;
9306;SDS011;4691;47.612;7.610;2023-08-06T06:38:51;2.25;;;1.20;;
9306;SDS011;4691;47.612;7.610;2023-08-06T06:41:16;2.80;;;1.00;;
9306;SDS011;4691;47.612;7.610;2023-08-06T06:43:41;1.05;;;0.68;;
9306;SDS011;4691;47.612;7.610;2023-08-06T06:46:07;2.53;;;0.80;;
9306;SDS011;4691;47.612;7.610;2023-08-06T06:48:32;3.03;;;0.90;;
9306;SDS011;4691;47.612;7.610;2023-08-06T06:50:58;2.58;;;0.75;;
9306;SDS011;4691;47.612;7.610;2023-08-06T06:53:24;3.05;;;0.93;;
9306;SDS011;4691;47.612;7.610;2023-08-06T06:55:55;3.33;;;0.70;;
9306;SDS011;4691;47.612;7.610;2023-08-06T06:58:20;3.10;;;0.80;;
9306;SDS011;4691;47.612;7.610;2023-08-06T07:00:47;1.20;;;0.90;;
9306;SDS011;4691;47.612;7.610;2023-08-06T07:03:13;0.93;;;0.70;;
9306;SDS011;4691;47.612;7.610;2023-08-06T07:05:38;2.28;;;0.80;;
9306;SDS011;4691;47.612;7.610;2023-08-06T07:08:04;0.68;;;0.50;;
9306;SDS011;4691;47.612;7.610;2023-08-06T07:10:29;2.33;;;0.50;;
9306;SDS011;4691;47.612;7.610;2023-08-06T07:12:54;1.65;;;0.63;;
9306;SDS011;4691;47.612;7.610;2023-08-06T07:15:20;3.10;;;0.65;;
9306;SDS011;4691;47.612;7.610;2023-08-06T07:17:45;1.58;;;0.60;;
9306;SDS011;4691;47.612;7.610;2023-08-06T07:20:10;2.47;;;0.70;;
9306;SDS011;4691;47.612;7.610;2023-08-06T07:22:36;1.75;;;0.50;;
9306;SDS011;4691;47.612;7.610;2023-08-06T07:25:01;0.63;;;0.50;;
9306;SDS011;4691;47.612;7.610;2023-08-06T07:27:27;12.30;;;1.23;;
9306;SDS011;4691;47.612;7.610;2023-08-06T07:29:52;3.13;;;0.57;;
9306;SDS011;4691;47.612;7.610;2023-08-06T07:32:17;2.90;;;0.60;;
9306;SDS011;4691;47.612;7.610;2023-08-06T07:34:43;0.88;;;0.55;;
9306;SDS011;4691;47.612;7.610;2023-08-06T07:37:08;0.68;;;0.50;;
9306;SDS011;4691;47.612;7.610;2023-08-06T07:39:33;1.17;;;0.60;;
9306;SDS011;4691;47.612;7.610;2023-08-06T07:41:58;2.47;;;0.65;;
9306;SDS011;4691;47.612;7.610;2023-08-06T07:44:24;4.25;;;0.68;;
9306;SDS011;4691;47.612;7.610;2023-08-06T07:46:49;5.18;;;0.70;;
9306;SDS011;4691;47.612;7.610;2023-08-06T07:49:15;3.50;;;0.80;;
9306;SDS011;4691;47.612;7.610;2023-08-06T07:51:40;1.70;;;0.65;;
9306;SDS011;4691;47.612;7.610;2023-08-06T07:54:05;0.85;;;0.70;;
9306;SDS011;4691;47.612;7.610;2023-08-06T07:56:31;1.88;;;0.80;;
9306;SDS011;4691;47.612;7.610;2023-08-06T07:58:56;2.33;;;0.82;;
9306;SDS011;4691;47.612;7.610;2023-08-06T08:01:22;2.00;;;0.90;;
9306;SDS011;4691;47.612;7.610;2023-08-06T08:03:47;1.58;;;1.00;;
9306;SDS011;4691;47.612;7.610;2023-08-06T08:06:12;5.60;;;0.80;;
9306;SDS011;4691;47.612;7.610;2023-08-06T08:08:38;2.60;;;0.73;;
9306;SDS011;4691;47.612;7.610;2023-08-06T08:11:03;3.20;;;0.95;;
9306;SDS011;4691;47.612;7.610;2023-08-06T08:13:29;1.90;;;0.80;;
9306;SDS011;4691;47.612;7.610;2023-08-06T08:15:58;3.20;;;1.23;;
9306;SDS011;4691;47.612;7.610;2023-08-06T08:18:24;1.77;;;0.80;;
9306;SDS011;4691;47.612;7.610;2023-08-06T08:20:49;4.68;;;1.17;;
9306;SDS011;4691;47.612;7.610;2023-08-06T08:23:15;2.17;;;1.02;;
9306;SDS011;4691;47.612;7.610;2023-08-06T08:25:40;4.32;;;1.48;;
9306;SDS011;4691;47.612;7.610;2023-08-06T08:28:06;1.27;;;0.80;;
9306;SDS011;4691;47.612;7.610;2023-08-06T08:30:32;1.83;;;0.98;;
9306;SDS011;4691;47.612;7.610;2023-08-06T08:32:57;3.08;;;1.00;;
9306;SDS011;4691;47.612;7.610;2023-08-06T08:35:22;3.92;;;1.23;;
9306;SDS011;4691;47.612;7.610;2023-08-06T08:37:48;3.70;;;0.93;;
9306;SDS011;4691;47.612;7.610;2023-08-06T08:40:14;2.42;;;0.90;;
9306;SDS011;4691;47.612;7.610;2023-08-06T08:42:40;2.13;;;0.80;;
9306;SDS011;4691;47.612;7.610;2023-08-06T08:45:06;1.55;;;0.80;;
9306;SDS011;4691;47.612;7.610;2023-08-06T08:47:37;1.73;;;0.70;;
9306;SDS011;4691;47.612;7.610;2023-08-06T08:50:03;2.35;;;0.90;;
9306;SDS011;4691;47.612;7.610;2023-08-06T08:52:31;1.83;;;0.70;;
9306;SDS011;4691;47.612;7.610;2023-08-06T08:54:59;1.75;;;0.80;;
9306;SDS011;4691;47.612;7.610;2023-08-06T08:57:26;2.15;;;0.80;;
9306;SDS011;4691;47.612;7.610;2023-08-06T08:59:51;2.15;;;1.35;;
9306;SDS011;4691;47.612;7.610;2023-08-06T09:02:17;0.73;;;0.60;;
9306;SDS011;4691;47.612;7.610;2023-08-06T09:04:44;1.10;;;0.75;;
9306;SDS011;4691;47.612;7.610;2023-08-06T09:07:10;1.75;;;0.57;;
9306;SDS011;4691;47.612;7.610;2023-08-06T09:09:40;2.15;;;0.63;;
9306;SDS011;4691;47.612;7.610;2023-08-06T09:12:14;3.53;;;0.60;;
9306;SDS011;4691;47.612;7.610;2023-08-06T09:14:40;1.23;;;0.68;;
9306;SDS011;4691;47.612;7.610;2023-08-06T09:17:06;1.15;;;0.50;;
9306;SDS011;4691;47.612;7.610;2023-08-06T09:19:32;3.05;;;0.82;;
9306;SDS011;4691;47.612;7.610;2023-08-06T09:21:58;1.67;;;0.57;;
9306;SDS011;4691;47.612;7.610;2023-08-06T09:24:24;1.48;;;0.80;;
9306;SDS011;4691;47.612;7.610;2023-08-06T09:26:51;1.77;;;0.93;;
9306;SDS011;4691;47.612;7.610;2023-08-06T09:29:16;1.60;;;0.80;;
9306;SDS011;4691;47.612;7.610;2023-08-06T09:31:42;2.00;;;1.20;;
9306;SDS011;4691;47.612;7.610;2023-08-06T09:34:17;1.58;;;1.00;;
9306;SDS011;4691;47.612;7.610;2023-08-06T09:36:47;4.30;;;0.98;;
9306;SDS011;4691;47.612;7.610;2023-08-06T09:39:25;1.48;;;0.82;;
9306;SDS011;4691;47.612;7.610;2023-08-06T09:41:55;1.95;;;0.98;;
9306;SDS011;4691;47.612;7.610;2023-08-06T09:44:21;3.38;;;1.00;;
9306;SDS011;4691;47.612;7.610;2023-08-06T09:46:49;2.72;;;1.38;;
9306;SDS011;4691;47.612;7.610;2023-08-06T09:49:19;2.15;;;1.05;;
9306;SDS011;4691;47.612;7.610;2023-08-06T09:51:46;2.00;;;1.10;;
9306;SDS011;4691;47.612;7.610;2023-08-06T09:54:15;1.63;;;1.05;;
9306;SDS011;4691;47.612;7.610;2023-08-06T09:56:42;2.55;;;0.98;;
9306;SDS011;4691;47.612;7.610;2023-08-06T09:59:08;2.75;;;1.00;;
9306;SDS011;4691;47.612;7.610;2023-08-06T10:01:34;1.92;;;0.80;;
9306;SDS011;4691;47.612;7.610;2023-08-06T10:04:03;2.15;;;0.90;;
9306;SDS011;4691;47.612;7.610;2023-08-06T10:06:32;2.42;;;1.13;;
9306;SDS011;4691;47.612;7.610;2023-08-06T10:08:59;2.30;;;0.90;;
9306;SDS011;4691;47.612;7.610;2023-08-06T10:11:25;1.50;;;0.85;;
9306;SDS011;4691;47.612;7.610;2023-08-06T10:13:54;2.60;;;0.90;;
9306;SDS011;4691;47.612;7.610;2023-08-06T10:16:23;3.05;;;1.00;;
9306;SDS011;4691;47.612;7.610;2023-08-06T10:18:49;3.20;;;1.10;;
9306;SDS011;4691;47.612;7.610;2023-08-06T10:21:15;2.05;;;1.25;;
9306;SDS011;4691;47.612;7.610;2023-08-06T10:23:41;4.07;;;1.08;;
9306;SDS011;4691;47.612;7.610;2023-08-06T10:26:07;1.63;;;1.17;;
9306;SDS011;4691;47.612;7.610;2023-08-06T10:28:36;1.45;;;1.00;;
9306;SDS011;4691;47.612;7.610;2023-08-06T10:31:02;2.33;;;1.50;;
9306;SDS011;4691;47.612;7.610;2023-08-06T10:33:47;1.20;;;1.00;;
9306;SDS011;4691;47.612;7.610;2023-08-06T10:36:13;1.25;;;0.90;;
9306;SDS011;4691;47.612;7.610;2023-08-06T10:38:49;1.40;;;1.00;;
9306;SDS011;4691;47.612;7.610;2023-08-06T10:41:21;2.05;;;1.30;;
9306;SDS011;4691;47.612;7.610;2023-08-06T10:44:04;4.03;;;1.73;;
9306;SDS011;4691;47.612;7.610;2023-08-06T10:46:35;1.58;;;1.05;;
9306;SDS011;4691;47.612;7.610;2023-08-06T10:49:02;5.60;;;1.40;;
9306;SDS011;4691;47.612;7.610;2023-08-06T10:51:28;1.95;;;0.80;;
9306;SDS011;4691;47.612;7.610;2023-08-06T10:53:53;2.20;;;1.10;;
9306;SDS011;4691;47.612;7.610;2023-08-06T10:56:20;2.60;;;1.20;;
9306;SDS011;4691;47.612;7.610;2023-08-06T10:58:50;3.03;;;1.20;;
9306;SDS011;4691;47.612;7.610;2023-08-06T11:01:17;1.90;;;0.98;;
9306;SDS011;4691;47.612;7.610;2023-08-06T11:03:43;3.05;;;0.93;;
9306;SDS011;4691;47.612;7.610;2023-08-06T11:06:10;1.10;;;0.77;;
9306;SDS011;4691;47.612;7.610;2023-08-06T11:08:36;2.60;;;1.60;;
9306;SDS011;4691;47.612;7.610;2023-08-06T11:11:12;1.55;;;1.08;;
9306;SDS011;4691;47.612;7.610;2023-08-06T11:13:42;1.38;;;1.00;;
9306;SDS011;4691;47.612;7.610;2023-08-06T11:16:11;1.40;;;1.00;;
9306;SDS011;4691;47.612;7.610;2023-08-06T11:18:38;2.85;;;1.23;;
9306;SDS011;4691;47.612;7.610;2023-08-06T11:21:04;3.50;;;1.45;;
9306;SDS011;4691;47.612;7.610;2023-08-06T11:23:29;2.72;;;1.38;;
9306;SDS011;4691;47.612;7.610;2023-08-06T11:25:56;1.60;;;1.10;;
9306;SDS011;4691;47.612;7.610;2023-08-06T11:28:21;3.55;;;1.45;;
9306;SDS011;4691;47.612;7.610;2023-08-06T11:30:47;3.75;;;1.25;;
9306;SDS011;4691;47.612;7.610;2023-08-06T11:33:13;4.15;;;1.63;;
9306;SDS011;4691;47.612;7.610;2023-08-06T11:35:39;4.47;;;1.73;;
9306;SDS011;4691;47.612;7.610;2023-08-06T11:38:05;3.40;;;1.70;;
9306;SDS011;4691;47.612;7.610;2023-08-06T11:40:31;6.25;;;1.73;;
9306;SDS011;4691;47.612;7.610;2023-08-06T11:42:57;3.92;;;1.90;;
9306;SDS011;4691;47.612;7.610;2023-08-06T11:45:23;3.63;;;1.92;;
9306;SDS011;4691;47.612;7.610;2023-08-06T11:47:49;3.55;;;2.10;;
9306;SDS011;4691;47.612;7.610;2023-08-06T11:50:26;3.30;;;1.92;;
9306;SDS011;4691;47.612;7.610;2023-08-06T11:53:00;4.15;;;2.03;;
9306;SDS011;4691;47.612;7.610;2023-08-06T11:55:26;3.80;;;1.90;;
9306;SDS011;4691;47.612;7.610;2023-08-06T11:57:56;3.58;;;2.13;;
9306;SDS011;4691;47.612;7.610;2023-08-06T12:00:24;4.47;;;1.92;;
9306;SDS011;4691;47.612;7.610;2023-08-06T12:02:51;2.87;;;2.03;;
9306;SDS011;4691;47.612;7.610;2023-08-06T12:05:18;3.55;;;2.22;;
9306;SDS011;4691;47.612;7.610;2023-08-06T12:07:46;2.53;;;1.75;;
9306;SDS011;4691;47.612;7.610;2023-08-06T12:10:13;5.38;;;2.15;;
9306;SDS011;4691;47.612;7.610;2023-08-06T12:12:40;3.35;;;1.60;;
9306;SDS011;4691;47.612;7.610;2023-08-06T12:15:06;2.80;;;1.67;;
9306;SDS011;4691;47.612;7.610;2023-08-06T12:17:32;5.55;;;1.88;;
9306;SDS011;4691;47.612;7.610;2023-08-06T12:19:58;12.68;;;2.05;;
9306;SDS011;4691;47.612;7.610;2023-08-06T12:22:23;5.18;;;2.25;;
9306;SDS011;4691;47.612;7.610;2023-08-06T12:24:49;2.90;;;1.77;;
9306;SDS011;4691;47.612;7.610;2023-08-06T12:27:15;6.50;;;2.00;;
9306;SDS011;4691;47.612;7.610;2023-08-06T12:29:42;5.55;;;2.33;;
9306;SDS011;4691;47.612;7.610;2023-08-06T12:32:09;3.00;;;1.92;;
9306;SDS011;4691;47.612;7.610;2023-08-06T12:34:35;5.93;;;1.90;;
9306;SDS011;4691;47.612;7.610;2023-08-06T12:37:01;2.75;;;1.70;;
9306;SDS011;4691;47.612;7.610;2023-08-06T12:39:30;4.43;;;1.80;;
9306;SDS011;4691;47.612;7.610;2023-08-06T12:41:56;3.92;;;1.80;;
9306;SDS011;4691;47.612;7.610;2023-08-06T12:44:22;2.70;;;1.67;;
9306;SDS011;4691;47.612;7.610;2023-08-06T12:46:49;4.43;;;1.90;;
9306;SDS011;4691;47.612;7.610;2023-08-06T12:49:15;4.10;;;1.60;;
9306;SDS011;4691;47.612;7.610;2023-08-06T12:51:40;4.40;;;2.47;;
9306;SDS011;4691;47.612;7.610;2023-08-06T12:54:05;5.13;;;2.28;;
9306;SDS011;4691;47.612;7.610;2023-08-06T12:56:30;2.92;;;2.05;;
9306;SDS011;4691;47.612;7.610;2023-08-06T12:58:56;4.57;;;2.10;;
9306;SDS011;4691;47.612;7.610;2023-08-06T13:01:21;7.13;;;2.30;;
9306;SDS011;4691;47.612;7.610;2023-08-06T13:03:46;5.47;;;2.45;;
9306;SDS011;4691;47.612;7.610;2023-08-06T13:06:12;7.97;;;2.72;;
9306;SDS011;4691;47.612;7.610;2023-08-06T13:08:37;6.65;;;2.55;;
9306;SDS011;4691;47.612;7.610;2023-08-06T13:11:03;5.18;;;2.40;;
9306;SDS011;4691;47.612;7.610;2023-08-06T13:13:29;7.95;;;3.65;;
9306;SDS011;4691;47.612;7.610;2023-08-06T13:15:54;7.55;;;2.90;;
9306;SDS011;4691;47.612;7.610;2023-08-06T13:18:20;4.43;;;2.50;;
9306;SDS011;4691;47.612;7.610;2023-08-06T13:20:45;2.88;;;1.80;;
9306;SDS011;4691;47.612;7.610;2023-08-06T13:23:12;5.28;;;1.80;;
9306;SDS011;4691;47.612;7.610;2023-08-06T13:25:40;2.60;;;1.90;;
9306;SDS011;4691;47.612;7.610;2023-08-06T13:28:05;4.35;;;1.73;;
9306;SDS011;4691;47.612;7.610;2023-08-06T13:30:31;3.22;;;1.75;;
9306;SDS011;4691;47.612;7.610;2023-08-06T13:32:56;3.90;;;1.77;;
9306;SDS011;4691;47.612;7.610;2023-08-06T13:35:23;6.97;;;2.40;;
9306;SDS011;4691;47.612;7.610;2023-08-06T13:37:48;5.00;;;2.60;;
9306;SDS011;4691;47.612;7.610;2023-08-06T13:40:14;6.78;;;3.00;;
9306;SDS011;4691;47.612;7.610;2023-08-06T13:42:39;3.25;;;1.92;;
9306;SDS011;4691;47.612;7.610;2023-08-06T13:45:05;3.83;;;1.75;;
9306;SDS011;4691;47.612;7.610;2023-08-06T13:47:31;4.85;;;2.30;;
9306;SDS011;4691;47.612;7.610;2023-08-06T13:49:57;4.05;;;1.70;;
9306;SDS011;4691;47.612;7.610;2023-08-06T13:52:22;4.57;;;2.10;;
9306;SDS011;4691;47.612;7.610;2023-08-06T13:54:48;4.82;;;1.92;;
9306;SDS011;4691;47.612;7.610;2023-08-06T13:57:13;4.93;;;1.90;;
9306;SDS011;4691;47.612;7.610;2023-08-06T13:59:38;5.30;;;1.88;;
9306;SDS011;4691;47.612;7.610;2023-08-06T14:02:04;3.53;;;1.92;;
9306;SDS011;4691;47.612;7.610;2023-08-06T14:04:30;6.88;;;1.73;;
9306;SDS011;4691;47.612;7.610;2023-08-06T14:06:55;4.95;;;1.80;;
9306;SDS011;4691;47.612;7.610;2023-08-06T14:09:20;3.58;;;1.67;;
9306;SDS011;4691;47.612;7.610;2023-08-06T14:11:46;5.38;;;2.08;;
9306;SDS011;4691;47.612;7.610;2023-08-06T14:14:11;3.90;;;1.70;;
9306;SDS011;4691;47.612;7.610;2023-08-06T14:16:36;2.90;;;1.80;;
9306;SDS011;4691;47.612;7.610;2023-08-06T14:19:02;4.03;;;2.00;;
9306;SDS011;4691;47.612;7.610;2023-08-06T14:21:30;2.28;;;1.70;;
9306;SDS011;4691;47.612;7.610;2023-08-06T14:23:55;4.00;;;1.73;;
9306;SDS011;4691;47.612;7.610;2023-08-06T14:26:21;4.35;;;2.22;;
9306;SDS011;4691;47.612;7.610;2023-08-06T14:28:49;4.78;;;2.03;;
9306;SDS011;4691;47.612;7.610;2023-08-06T14:31:17;4.03;;;1.83;;
9306;SDS011;4691;47.612;7.610;2023-08-06T14:33:42;2.60;;;1.70;;
9306;SDS011;4691;47.612;7.610;2023-08-06T14:36:07;5.13;;;2.22;;
9306;SDS011;4691;47.612;7.610;2023-08-06T14:38:33;9.50;;;2.10;;
9306;SDS011;4691;47.612;7.610;2023-08-06T14:40:58;4.35;;;1.95;;
9306;SDS011;4691;47.612;7.610;2023-08-06T14:43:24;4.95;;;1.75;;
9306;SDS011;4691;47.612;7.610;2023-08-06T14:45:49;5.15;;;1.92;;
9306;SDS011;4691;47.612;7.610;2023-08-06T14:48:15;2.95;;;1.60;;
9306;SDS011;4691;47.612;7.610;2023-08-06T14:50:40;4.95;;;2.25;;
9306;SDS011;4691;47.612;7.610;2023-08-06T14:53:06;5.70;;;1.70;;
9306;SDS011;4691;47.612;7.610;2023-08-06T14:55:31;5.82;;;2.90;;
9306;SDS011;4691;47.612;7.610;2023-08-06T14:57:57;3.53;;;2.05;;
9306;SDS011;4691;47.612;7.610;2023-08-06T15:00:22;3.28;;;2.33;;
9306;SDS011;4691;47.612;7.610;2023-08-06T15:02:47;4.78;;;2.00;;
9306;SDS011;4691;47.612;7.610;2023-08-06T15:05:13;5.53;;;2.05;;
9306;SDS011;4691;47.612;7.610;2023-08-06T15:07:38;4.97;;;1.85;;
9306;SDS011;4691;47.612;7.610;2023-08-06T15:10:05;4.28;;;1.85;;
9306;SDS011;4691;47.612;7.610;2023-08-06T15:12:31;4.72;;;2.00;;
9306;SDS011;4691;47.612;7.610;2023-08-06T15:14:57;3.60;;;1.80;;
9306;SDS011;4691;47.612;7.610;2023-08-06T15:17:23;6.50;;;2.45;;
9306;SDS011;4691;47.612;7.610;2023-08-06T15:19:48;4.75;;;2.38;;